logo
Search for airport 
image banner adimage banner adimage banner ad
image banner ad

LOIP - Ischgl-Idalpe

Located in District Landeck, Austria

ICAO - , IATA -

Data provided by Airmate  

General information

Coordinates: N46°58'50" E10°18'57"
Elevation is 7522 feet MSL.
 
View others Airports in Tyrol

Operational data

Special qualification required
Current time UTC:
Current local time:
Weather at : LSZS - Samedan ( 59 km )
METAR: LSZS 150820Z 22008KT 9999 SCT040 BKN085 11/05 Q1017 RMK G TL170
TAF: TAF LSZS 150525Z 1506/1515 VRB02KT CAVOK TX14/1515Z BECMG 1506/1509 9999 SCT070 BECMG 1509/1512 22012KT TEMPO 1512/1515 22015G25KT
View NOTAMs / SUP AIP / TFR affecting this airport [VIEW]
Communications frequencies: [VIEW]

Runways:

Airport contact information

Address: District Landeck Austria

Satellite view of LOIP